createdAt,value
2018-01-30T00:00:30.619Z,96.83
2018-01-30T00:01:30.565Z,96.64
2018-01-30T00:02:30.557Z,95.98
2018-01-30T00:03:30.554Z,95.98
2018-01-30T00:04:30.558Z,96.36
2018-01-30T00:05:30.588Z,95.51
2018-01-30T00:06:30.592Z,95.89
2018-01-30T00:07:30.551Z,96.64
2018-01-30T00:08:30.544Z,97.22
2018-01-30T00:09:30.542Z,96.59
2018-01-30T00:10:30.540Z,96.22
2018-01-30T00:11:30.597Z,96.31
2018-01-30T00:12:30.535Z,96.69
2018-01-30T00:13:30.536Z,96.97
2018-01-30T00:14:30.532Z,97.64
2018-01-30T00:15:30.572Z,97.45
2018-01-30T00:16:30.531Z,97.74
2018-01-30T00:17:30.560Z,97.45
2018-01-30T00:18:30.530Z,97.45
2018-01-30T00:19:30.528Z,97.83
2018-01-30T00:20:30.516Z,97.45
2018-01-30T00:21:30.515Z,96.97
2018-01-30T00:22:30.552Z,96.31
2018-01-30T00:23:30.510Z,96.69
2018-01-30T00:24:30.510Z,97.36
2018-01-30T00:25:30.506Z,97.83
2018-01-30T00:26:30.500Z,97.55
2018-01-30T00:27:30.542Z,98.02
2018-01-30T00:28:30.497Z,96.97
2018-01-30T00:29:30.492Z,96.31
2018-01-30T00:30:30.500Z,96.69
2018-01-30T00:31:30.490Z,97.55
2018-01-30T00:32:30.523Z,97.45
2018-01-30T00:33:30.484Z,96.22
2018-01-30T00:34:30.480Z,97.45
2018-01-30T00:35:30.479Z,96.50
2018-01-30T00:36:30.480Z,96.41
2018-01-30T00:37:30.516Z,97.07
2018-01-30T00:38:30.471Z,96.41
2018-01-30T00:39:30.473Z,96.22
2018-01-30T00:40:30.472Z,96.41
2018-01-30T00:41:30.462Z,95.36
2018-01-30T00:42:30.526Z,94.74
2018-01-30T00:43:30.466Z,95.22
2018-01-30T00:44:30.461Z,96.45
2018-01-30T00:45:30.496Z,96.17
2018-01-30T00:46:30.452Z,96.92
2018-01-30T00:47:30.491Z,97.40
2018-01-30T00:48:30.442Z,97.31
2018-01-30T00:49:30.445Z,96.83
2018-01-30T00:50:30.442Z,96.17
2018-01-30T00:51:30.473Z,95.12
2018-01-30T00:52:30.432Z,94.74
2018-01-30T00:53:30.430Z,94.60
2018-01-30T00:54:30.428Z,94.74
2018-01-30T00:55:30.425Z,95.31
2018-01-30T00:56:30.483Z,95.31
2018-01-30T00:57:30.419Z,95.50
2018-01-30T00:58:30.416Z,95.03
2018-01-30T00:59:30.413Z,94.93
2018-01-30T01:00:30.444Z,94.65
2018-01-30T01:01:30.406Z,94.46
2018-01-30T01:02:30.465Z,93.41
2018-01-30T01:03:30.404Z,94.56
2018-01-30T01:04:30.397Z,94.93
2018-01-30T01:05:30.434Z,95.03
2018-01-30T01:06:30.391Z,94.93
2018-01-30T01:07:30.427Z,94.93
2018-01-30T01:08:30.387Z,95.03
2018-01-30T01:09:30.388Z,94.46
2018-01-30T01:10:30.384Z,92.28
2018-01-30T01:11:30.381Z,91.61
2018-01-30T01:12:30.437Z,90.95
2018-01-30T01:13:30.371Z,90.10
2018-01-30T01:14:30.372Z,90.67
2018-01-30T01:15:30.406Z,90.48
2018-01-30T01:16:30.364Z,90.86
2018-01-30T01:17:30.364Z,91.14
2018-01-30T01:18:30.400Z,90.57
2018-01-30T01:19:30.363Z,90.76
2018-01-30T01:20:30.361Z,91.42
2018-01-30T01:21:30.354Z,90.76
2018-01-30T01:22:30.350Z,91.42
2018-01-30T01:23:30.389Z,90.86
2018-01-30T01:24:30.339Z,90.48
2018-01-30T01:25:30.336Z,90.76
2018-01-30T01:26:30.333Z,91.42
2018-01-30T01:27:30.330Z,90.72
2018-01-30T01:28:30.375Z,91.19
2018-01-30T01:29:30.325Z,91.85
2018-01-30T01:30:51.283Z,91.57
2018-01-30T01:31:30.289Z,92.23
2018-01-30T01:32:30.268Z,91.57
2018-01-30T01:33:30.326Z,92.04
2018-01-30T01:34:30.281Z,92.23
2018-01-30T01:35:30.259Z,92.71
2018-01-30T01:36:32.984Z,93.94
2018-01-30T01:37:30.248Z,94.23
2018-01-30T01:38:30.700Z,93.37
2018-01-30T01:39:44.996Z,93.65
2018-01-30T01:40:30.260Z,94.51
2018-01-30T01:41:30.249Z,94.42
2018-01-30T01:42:30.253Z,94.51
2018-01-30T01:43:30.246Z,94.32
2018-01-30T01:44:30.288Z,93.84
2018-01-30T01:45:33.000Z,94.89
2018-01-30T01:46:30.241Z,94.42
2018-01-30T01:47:44.990Z,93.46
2018-01-30T01:48:30.233Z,92.42
2018-01-30T01:49:30.269Z,92.42
2018-01-30T01:50:30.224Z,92.52
2018-01-30T01:51:30.223Z,92.52
2018-01-30T01:52:30.219Z,92.80
2018-01-30T01:53:30.199Z,92.52
2018-01-30T01:54:35.546Z,93.27
2018-01-30T01:55:30.208Z,94.51
2018-01-30T01:56:30.199Z,94.13
2018-01-30T01:57:30.232Z,94.32
2018-01-30T01:58:30.228Z,94.70
2018-01-30T01:59:30.270Z,94.32
2018-01-30T02:00:30.215Z,92.80
2018-01-30T02:01:30.984Z,91.85
2018-01-30T02:02:30.214Z,92.33
2018-01-30T02:03:30.210Z,93.08
2018-01-30T02:04:30.244Z,93.37
2018-01-30T02:05:30.201Z,93.56
2018-01-30T02:06:30.215Z,93.46
2018-01-30T02:07:30.196Z,93.75
2018-01-30T02:08:30.141Z,93.84
2018-01-30T02:09:30.184Z,93.18
2018-01-30T02:10:30.173Z,93.18
2018-01-30T02:11:30.130Z,93.08
2018-01-30T02:12:30.130Z,93.46
2018-01-30T02:13:30.123Z,94.13
2018-01-30T02:14:30.124Z,93.65
2018-01-30T02:15:30.155Z,93.46
2018-01-30T02:16:30.117Z,94.51
2018-01-30T02:17:30.109Z,94.51
2018-01-30T02:18:30.106Z,94.60
2018-01-30T02:19:30.108Z,94.32
2018-01-30T02:20:30.143Z,93.46
2018-01-30T02:21:30.109Z,93.27
2018-01-30T02:22:30.094Z,93.27
2018-01-30T02:23:30.093Z,93.37
2018-01-30T02:24:30.091Z,93.08
2018-01-30T02:25:30.126Z,93.65
2018-01-30T02:26:30.077Z,93.56
2018-01-30T02:27:30.074Z,93.75
2018-01-30T02:28:30.076Z,94.23
2018-01-30T02:29:30.108Z,94.04
2018-01-30T02:30:30.067Z,94.89
2018-01-30T02:31:30.068Z,94.89
2018-01-30T02:32:30.062Z,94.98
2018-01-30T02:33:30.057Z,95.17
2018-01-30T02:34:30.096Z,95.55
2018-01-30T02:35:30.090Z,95.17
2018-01-30T02:36:30.052Z,94.98
2018-01-30T02:37:30.046Z,94.32
2018-01-30T02:38:30.037Z,94.42
2018-01-30T02:39:30.033Z,94.04
2018-01-30T02:40:30.070Z,93.75
2018-01-30T02:41:30.025Z,93.94
2018-01-30T02:42:30.028Z,93.56
2018-01-30T02:43:30.019Z,92.61
2018-01-30T02:44:30.015Z,92.42
2018-01-30T02:45:30.056Z,92.80
2018-01-30T02:46:30.010Z,92.61
2018-01-30T02:47:30.009Z,92.23
2018-01-30T02:48:30.001Z,92.04
2018-01-30T02:49:29.997Z,90.62
2018-01-30T02:50:30.041Z,91.19
2018-01-30T02:51:29.992Z,91.85
2018-01-30T02:52:29.987Z,92.04
2018-01-30T02:53:29.987Z,92.71
2018-01-30T02:54:29.982Z,92.23
2018-01-30T02:55:30.027Z,92.23
2018-01-30T02:56:30.604Z,91.95
2018-01-30T02:57:29.968Z,92.23
2018-01-30T02:58:29.965Z,90.72
2018-01-30T02:59:29.968Z,91.66
2018-01-30T03:00:29.999Z,91.47
2018-01-30T03:01:29.998Z,92.14
2018-01-30T03:02:29.954Z,92.33
2018-01-30T03:03:29.949Z,92.80
2018-01-30T03:04:29.942Z,92.42
2018-01-30T03:05:29.947Z,92.04
2018-01-30T03:06:29.976Z,92.04
2018-01-30T03:07:29.936Z,91.57
2018-01-30T03:08:29.938Z,91.47
2018-01-30T03:09:29.932Z,91.66
2018-01-30T03:10:29.925Z,91.66
2018-01-30T03:11:29.971Z,91.47
2018-01-30T03:12:29.921Z,91.38
2018-01-30T03:13:29.917Z,91.38
2018-01-30T03:14:29.910Z,92.04
2018-01-30T03:15:29.959Z,92.04
2018-01-30T03:16:29.903Z,91.38
2018-01-30T03:17:29.941Z,91.76
2018-01-30T03:18:29.894Z,91.66
2018-01-30T03:19:29.892Z,91.28
2018-01-30T03:20:29.889Z,91.00
2018-01-30T03:21:29.884Z,90.72
2018-01-30T03:22:29.919Z,91.38
2018-01-30T03:23:30.009Z,91.95
2018-01-30T03:24:29.876Z,91.85
2018-01-30T03:25:30.481Z,91.38
2018-01-30T03:26:29.869Z,92.04
2018-01-30T03:27:29.949Z,92.14
2018-01-30T03:28:29.859Z,92.99
2018-01-30T03:29:30.599Z,92.14
2018-01-30T03:30:29.856Z,92.14
2018-01-30T03:31:29.853Z,92.04
2018-01-30T03:32:29.896Z,92.80
2018-01-30T03:33:29.850Z,91.95
2018-01-30T03:34:29.879Z,92.80
2018-01-30T03:35:30.012Z,93.56
2018-01-30T03:36:29.831Z,93.56
2018-01-30T03:37:29.828Z,92.61
2018-01-30T03:38:29.875Z,92.04
2018-01-30T03:39:29.865Z,92.14
2018-01-30T03:40:29.817Z,92.42
2018-01-30T03:41:29.812Z,92.80
2018-01-30T03:42:29.809Z,92.23
2018-01-30T03:43:29.808Z,91.57
2018-01-30T03:44:29.853Z,91.76
2018-01-30T03:45:29.798Z,92.23
2018-01-30T03:46:29.798Z,91.76
2018-01-30T03:47:29.791Z,91.85
2018-01-30T03:48:29.830Z,91.38
2018-01-30T03:49:29.828Z,91.85
2018-01-30T03:50:29.782Z,91.95
2018-01-30T03:51:29.783Z,91.85
2018-01-30T03:52:29.775Z,91.81
2018-01-30T03:53:29.769Z,91.95
2018-01-30T03:54:29.818Z,91.00
2018-01-30T03:55:29.765Z,91.76
2018-01-30T03:56:29.760Z,91.57
2018-01-30T03:57:29.758Z,91.76
2018-01-30T03:58:29.756Z,91.28
2018-01-30T03:59:29.785Z,91.57
2018-01-30T04:00:29.747Z,91.62
2018-01-30T04:01:29.741Z,91.52
2018-01-30T04:02:29.737Z,91.81
2018-01-30T04:03:29.733Z,92.85
2018-01-30T04:04:29.777Z,92.76
2018-01-30T04:05:29.726Z,92.57
2018-01-30T04:06:29.723Z,92.19
2018-01-30T04:07:29.719Z,93.51
2018-01-30T04:08:29.760Z,92.94
2018-01-30T04:09:29.712Z,92.57
2018-01-30T04:10:29.749Z,93.61
2018-01-30T04:11:29.706Z,93.51
2018-01-30T04:12:29.698Z,92.94
2018-01-30T04:13:29.697Z,92.94
2018-01-30T04:14:29.694Z,92.19
2018-01-30T04:15:29.763Z,92.19
2018-01-30T04:16:29.683Z,92.47
2018-01-30T04:17:29.681Z,92.66
2018-01-30T04:18:29.676Z,92.57
2018-01-30T04:19:29.673Z,92.66
2018-01-30T04:20:29.714Z,92.57
2018-01-30T04:21:29.664Z,93.23
2018-01-30T04:22:29.660Z,93.42
2018-01-30T04:23:29.696Z,93.51
2018-01-30T04:24:29.654Z,93.32
2018-01-30T04:25:29.648Z,93.99
2018-01-30T04:26:29.689Z,94.37
2018-01-30T04:27:29.642Z,93.61
2018-01-30T04:28:29.634Z,94.93
2018-01-30T04:29:29.633Z,94.04
2018-01-30T04:30:29.631Z,94.70
2018-01-30T04:31:29.664Z,94.32
2018-01-30T04:32:29.621Z,94.79
2018-01-30T04:33:29.615Z,94.79
2018-01-30T04:34:29.615Z,94.32
2018-01-30T04:35:29.607Z,94.42
2018-01-30T04:36:29.648Z,94.23
2018-01-30T04:37:29.599Z,94.98
2018-01-30T04:38:29.632Z,95.07
2018-01-30T04:39:29.592Z,94.42
2018-01-30T04:40:29.588Z,94.32
2018-01-30T04:41:29.625Z,94.32
2018-01-30T04:42:29.579Z,93.80
2018-01-30T04:43:29.576Z,94.08
2018-01-30T04:44:29.575Z,93.51
2018-01-30T04:45:29.577Z,93.32
2018-01-30T04:46:29.611Z,93.61
2018-01-30T04:47:29.557Z,94.27
2018-01-30T04:48:29.594Z,93.32
2018-01-30T04:49:29.548Z,93.23
2018-01-30T04:50:29.548Z,93.51
2018-01-30T04:51:29.544Z,92.76
2018-01-30T04:52:29.586Z,92.94
2018-01-30T04:53:29.554Z,93.51
2018-01-30T04:54:29.528Z,93.32
2018-01-30T04:55:29.529Z,92.71
2018-01-30T04:56:29.520Z,93.80
2018-01-30T04:57:29.555Z,93.84
2018-01-30T04:58:29.513Z,93.56
2018-01-30T04:59:29.510Z,93.46
2018-01-30T05:00:29.504Z,94.13
2018-01-30T05:01:29.504Z,94.13
2018-01-30T05:02:29.543Z,94.32
2018-01-30T05:03:29.495Z,94.79
2018-01-30T05:04:29.486Z,94.51
2018-01-30T05:05:29.492Z,93.37
2018-01-30T05:06:29.480Z,93.08
2018-01-30T05:07:29.554Z,93.94
2018-01-30T05:08:29.473Z,94.42
2018-01-30T05:09:29.473Z,93.65
2018-01-30T05:10:29.466Z,94.23
2018-01-30T05:11:29.463Z,93.37
2018-01-30T05:12:29.497Z,93.46
2018-01-30T05:13:29.456Z,92.80
2018-01-30T05:14:29.450Z,93.27
2018-01-30T05:15:29.441Z,92.71
2018-01-30T05:16:29.438Z,93.65
2018-01-30T05:17:29.477Z,93.46
2018-01-30T05:18:29.432Z,93.46
2018-01-30T05:19:29.434Z,94.89
2018-01-30T05:20:29.422Z,93.46
2018-01-30T05:21:29.421Z,94.32
2018-01-30T05:22:29.460Z,93.18
2018-01-30T05:23:29.422Z,92.52
2018-01-30T05:24:29.414Z,92.61
2018-01-30T05:25:29.414Z,92.61
2018-01-30T05:26:29.420Z,92.57
2018-01-30T05:27:29.444Z,92.52
2018-01-30T05:28:29.400Z,92.14
2018-01-30T05:29:29.397Z,92.76
2018-01-30T05:30:29.392Z,92.24
2018-01-30T05:31:29.391Z,92.90
2018-01-30T05:32:29.430Z,92.24
2018-01-30T05:33:29.376Z,92.71
2018-01-30T05:34:29.381Z,93.27
2018-01-30T05:35:29.362Z,92.99
2018-01-30T05:36:29.366Z,92.43
2018-01-30T05:37:29.409Z,92.52
2018-01-30T05:38:29.347Z,92.05
2018-01-30T05:39:29.341Z,92.14
2018-01-30T05:40:29.337Z,92.43
2018-01-30T05:41:29.380Z,91.57
2018-01-30T05:42:29.330Z,91.62
2018-01-30T05:43:29.326Z,90.58
2018-01-30T05:44:29.326Z,90.58
2018-01-30T05:45:29.313Z,90.67
2018-01-30T05:46:29.366Z,89.72
2018-01-30T05:47:29.305Z,90.67
2018-01-30T05:48:29.349Z,89.34
2018-01-30T05:49:29.298Z,89.25
2018-01-30T05:50:29.303Z,89.06
2018-01-30T05:51:29.328Z,89.44
2018-01-30T05:52:29.285Z,89.82
2018-01-30T05:53:29.282Z,89.06
2018-01-30T05:54:29.320Z,88.59
2018-01-30T05:55:29.274Z,88.21
2018-01-30T05:56:29.271Z,87.64
2018-01-30T05:57:29.266Z,88.40
2018-01-30T05:58:29.309Z,87.83
2018-01-30T05:59:29.259Z,87.35
2018-01-30T06:00:29.257Z,87.83
2018-01-30T06:01:29.253Z,87.92
2018-01-30T06:02:29.245Z,87.73
2018-01-30T06:03:29.298Z,86.88
2018-01-30T06:04:29.247Z,87.16
2018-01-30T06:05:29.235Z,87.73
2018-01-30T06:06:29.235Z,87.45
2018-01-30T06:07:29.270Z,87.73
2018-01-30T06:08:29.225Z,87.45
2018-01-30T06:09:29.259Z,87.73
2018-01-30T06:10:29.224Z,87.26
2018-01-30T06:11:29.212Z,87.83
2018-01-30T06:12:29.211Z,87.54
2018-01-30T06:13:29.206Z,88.30
2018-01-30T06:14:29.241Z,87.73
2018-01-30T06:15:29.197Z,88.40
2018-01-30T06:16:29.195Z,88.59
2018-01-30T06:17:29.190Z,89.06
2018-01-30T06:18:29.212Z,88.49
2018-01-30T06:19:29.219Z,88.40
2018-01-30T06:20:29.175Z,89.15
2018-01-30T06:21:29.172Z,88.59
2018-01-30T06:22:29.169Z,88.68
2018-01-30T06:23:29.166Z,89.06
2018-01-30T06:24:29.212Z,88.78
2018-01-30T06:25:29.157Z,88.87
2018-01-30T06:26:29.155Z,88.49
2018-01-30T06:27:29.150Z,89.06
2018-01-30T06:28:29.144Z,89.34
2018-01-30T06:29:29.187Z,88.78
2018-01-30T06:30:29.136Z,90.20
2018-01-30T06:31:29.255Z,89.72
2018-01-30T06:32:29.127Z,89.44
2018-01-30T06:33:29.164Z,89.34
2018-01-30T06:34:29.119Z,90.39
2018-01-30T06:35:29.158Z,90.58
2018-01-30T06:36:29.118Z,90.81
2018-01-30T06:37:29.108Z,91.00
2018-01-30T06:38:29.107Z,91.38
2018-01-30T06:39:29.099Z,91.48
2018-01-30T06:40:29.131Z,91.57
2018-01-30T06:41:29.096Z,91.38
2018-01-30T06:42:29.098Z,90.72
2018-01-30T06:43:29.086Z,90.53
2018-01-30T06:44:29.127Z,89.96
2018-01-30T06:45:29.082Z,90.44
2018-01-30T06:46:29.072Z,90.72
2018-01-30T06:47:29.334Z,90.44
2018-01-30T06:48:29.064Z,90.72
2018-01-30T06:49:29.115Z,90.44
2018-01-30T06:50:29.071Z,90.91
2018-01-30T06:51:29.084Z,90.81
2018-01-30T06:52:29.052Z,90.44
2018-01-30T06:53:29.087Z,90.72
2018-01-30T06:54:29.041Z,90.53
2018-01-30T06:55:29.086Z,89.96
2018-01-30T06:56:29.037Z,90.91
2018-01-30T06:57:29.029Z,90.34
2018-01-30T06:58:29.066Z,90.06
2018-01-30T06:59:29.031Z,89.87
2018-01-30T07:00:29.060Z,89.77
2018-01-30T07:01:29.012Z,89.77
2018-01-30T07:02:29.010Z,89.58
2018-01-30T07:03:29.003Z,90.44
2018-01-30T07:04:29.000Z,90.34
2018-01-30T07:05:29.036Z,90.53
2018-01-30T07:06:28.990Z,90.25
2018-01-30T07:07:28.988Z,90.72
2018-01-30T07:08:28.981Z,90.63
2018-01-30T07:09:28.977Z,90.72
2018-01-30T07:10:29.017Z,90.72
2018-01-30T07:11:28.969Z,90.44
2018-01-30T07:12:28.992Z,90.53
2018-01-30T07:13:29.010Z,90.06
2018-01-30T07:14:28.959Z,90.72
2018-01-30T07:15:28.950Z,90.72
2018-01-30T07:16:28.949Z,90.63
2018-01-30T07:17:28.945Z,91.48
2018-01-30T07:18:29.007Z,90.81
2018-01-30T07:19:28.938Z,89.96
2018-01-30T07:20:28.927Z,90.25
2018-01-30T07:21:28.969Z,89.49
2018-01-30T07:22:29.809Z,90.25
2018-01-30T07:23:28.965Z,90.34
2018-01-30T07:24:28.912Z,90.72
2018-01-30T07:25:28.908Z,90.15
2018-01-30T07:26:28.902Z,90.53
2018-01-30T07:27:28.902Z,90.25
2018-01-30T07:28:28.939Z,90.81
2018-01-30T07:29:28.891Z,90.63
2018-01-30T07:30:28.890Z,90.72
2018-01-30T07:31:28.895Z,90.81
2018-01-30T07:32:28.935Z,90.91
2018-01-30T07:33:28.875Z,91.29
2018-01-30T07:34:28.868Z,91.57
2018-01-30T07:35:28.864Z,92.10
2018-01-30T07:36:28.859Z,92.29
2018-01-30T07:37:28.891Z,91.91
2018-01-30T07:38:28.900Z,92.47
2018-01-30T07:39:28.849Z,92.00
2018-01-30T07:40:28.842Z,92.10
2018-01-30T07:41:28.839Z,92.85
2018-01-30T07:42:28.872Z,92.57
2018-01-30T07:43:28.871Z,92.57
2018-01-30T07:44:28.824Z,92.00
2018-01-30T07:45:28.823Z,92.19
2018-01-30T07:46:28.818Z,91.91
2018-01-30T07:47:28.818Z,92.57
2018-01-30T07:48:28.847Z,92.76
2018-01-30T07:49:28.807Z,93.04
2018-01-30T07:50:28.807Z,92.71
2018-01-30T07:51:28.800Z,91.76
2018-01-30T07:52:28.798Z,91.29
2018-01-30T07:53:28.831Z,91.10
2018-01-30T07:54:28.790Z,89.91
2018-01-30T07:55:28.784Z,87.83
2018-01-30T07:56:28.776Z,86.26
2018-01-30T07:57:28.772Z,85.41
2018-01-30T07:58:28.815Z,87.12
2018-01-30T07:59:28.769Z,86.88
2018-01-30T08:00:28.763Z,87.83
2018-01-30T08:01:28.758Z,87.64
2018-01-30T08:02:28.759Z,87.73
2018-01-30T08:03:28.800Z,87.83
2018-01-30T08:04:28.752Z,87.54
2018-01-30T08:05:28.746Z,88.96
2018-01-30T08:06:28.748Z,88.96
2018-01-30T08:07:28.747Z,88.30
2018-01-30T08:08:28.779Z,87.97
2018-01-30T08:09:28.734Z,84.59
2018-01-30T08:10:28.729Z,83.55
2018-01-30T08:11:28.730Z,84.03
2018-01-30T08:12:28.731Z,85.31
2018-01-30T08:13:28.773Z,85.97
2018-01-30T08:14:28.734Z,86.31
2018-01-30T08:15:28.722Z,86.79
2018-01-30T08:16:28.713Z,88.49
2018-01-30T08:17:28.715Z,88.40
2018-01-30T08:18:28.756Z,87.21
2018-01-30T08:19:28.714Z,85.45
2018-01-30T08:20:28.708Z,83.65
2018-01-30T08:21:28.712Z,82.08
2018-01-30T08:22:28.701Z,80.46
2018-01-30T08:23:28.741Z,81.56
2018-01-30T08:24:28.696Z,82.28
2018-01-30T08:25:28.702Z,83.32
2018-01-30T08:26:28.694Z,84.36
2018-01-30T08:27:28.702Z,86.88
2018-01-30T08:28:28.739Z,86.88
2018-01-30T08:29:28.731Z,87.54
2018-01-30T08:30:28.692Z,87.73
2018-01-30T08:31:28.688Z,88.40
2018-01-30T08:32:28.686Z,88.40
2018-01-30T08:33:28.681Z,87.92
2018-01-30T08:34:28.722Z,88.11
2018-01-30T08:35:28.681Z,88.78
2018-01-30T08:36:28.679Z,88.59
2018-01-30T08:37:28.669Z,87.83
2018-01-30T08:38:28.670Z,87.92
2018-01-30T08:39:28.710Z,87.83
2018-01-30T08:40:28.667Z,87.45
2018-01-30T08:41:28.665Z,88.44
2018-01-30T08:42:28.676Z,87.77
2018-01-30T08:43:28.663Z,88.44
2018-01-30T08:44:28.694Z,87.77
2018-01-30T08:45:28.650Z,87.97
2018-01-30T08:46:28.654Z,87.87
2018-01-30T08:47:28.651Z,87.40
2018-01-30T08:48:28.645Z,87.49
2018-01-30T08:49:28.693Z,87.02
2018-01-30T08:50:28.643Z,87.68
2018-01-30T08:51:28.641Z,87.40
2018-01-30T08:52:28.630Z,87.77
2018-01-30T08:53:28.674Z,87.77
2018-01-30T08:54:28.636Z,87.59
2018-01-30T08:55:28.688Z,87.49
2018-01-30T08:56:28.624Z,86.74
2018-01-30T08:57:28.624Z,87.68
2018-01-30T08:58:28.661Z,86.83
2018-01-30T08:59:28.615Z,85.78
2018-01-30T09:00:28.652Z,85.60
2018-01-30T09:01:28.604Z,85.36
2018-01-30T09:02:28.602Z,84.55
2018-01-30T09:03:28.631Z,85.07
2018-01-30T09:04:28.599Z,84.50
2018-01-30T09:05:29.367Z,84.78
2018-01-30T09:06:28.589Z,84.41
2018-01-30T09:07:28.589Z,83.78
2018-01-30T09:08:28.588Z,82.27
2018-01-30T09:09:28.585Z,83.36
2018-01-30T09:10:28.627Z,82.79
2018-01-30T09:11:28.583Z,83.17
2018-01-30T09:12:28.578Z,83.46
2018-01-30T09:13:28.578Z,83.17
2018-01-30T09:14:28.609Z,82.98
2018-01-30T09:15:28.574Z,81.56
2018-01-30T09:16:28.605Z,82.32
2018-01-30T09:17:28.568Z,82.79
2018-01-30T09:18:28.569Z,83.08
2018-01-30T09:19:28.568Z,82.98
2018-01-30T09:20:28.565Z,83.36
2018-01-30T09:21:28.603Z,83.36
2018-01-30T09:22:28.564Z,83.65
2018-01-30T09:23:28.567Z,83.36
2018-01-30T09:24:28.558Z,82.13
2018-01-30T09:25:28.558Z,80.94
2018-01-30T09:26:28.597Z,81.32
2018-01-30T09:27:28.551Z,80.32
2018-01-30T09:28:28.550Z,79.12
2018-01-30T09:29:28.924Z,76.61
2018-01-30T09:30:28.549Z,76.52
2018-01-30T09:31:28.592Z,76.61
2018-01-30T09:32:28.547Z,76.42
2018-01-30T09:33:28.548Z,76.42
2018-01-30T09:34:28.549Z,76.52
2018-01-30T09:35:28.550Z,76.90
2018-01-30T09:36:28.588Z,76.99
2018-01-30T09:37:28.553Z,75.85
2018-01-30T09:38:28.553Z,75.43
2018-01-30T09:39:28.552Z,77.14
2018-01-30T09:40:28.555Z,78.56
2018-01-30T09:41:28.592Z,78.91
2018-01-30T09:42:28.557Z,78.81
2018-01-30T09:43:28.557Z,78.70
2018-01-30T09:44:28.559Z,76.90
2018-01-30T09:45:28.601Z,76.57
2018-01-30T09:46:28.555Z,77.24
2018-01-30T09:47:28.556Z,78.28
2018-01-30T09:48:28.558Z,78.72
2018-01-30T09:49:28.561Z,78.72
2018-01-30T09:50:28.597Z,79.76
2018-01-30T09:51:28.597Z,79.38
2018-01-30T09:52:28.557Z,79.10
2018-01-30T09:53:28.556Z,79.38
2018-01-30T09:54:28.556Z,79.72
2018-01-30T09:55:28.556Z,80.57
2018-01-30T09:56:28.595Z,80.38
2018-01-30T09:57:28.557Z,80.62
2018-01-30T09:58:28.553Z,78.24
2018-01-30T09:59:28.551Z,78.34
2018-01-30T10:00:28.591Z,78.19
2018-01-30T10:01:28.550Z,78.38
2018-01-30T10:02:28.549Z,76.57
2018-01-30T10:03:28.551Z,77.33
2018-01-30T10:04:28.548Z,75.19
2018-01-30T10:05:28.594Z,73.90
2018-01-30T10:06:28.549Z,71.33
2018-01-30T10:07:28.550Z,72.25
2018-01-30T10:08:28.579Z,73.72
2018-01-30T10:09:29.468Z,76.10
2018-01-30T10:10:28.747Z,76.67
2018-01-30T10:11:28.556Z,76.57
2018-01-30T10:12:28.557Z,77.14
2018-01-30T10:13:28.561Z,77.62
2018-01-30T10:14:28.556Z,77.48
2018-01-30T10:15:28.604Z,78.34
2018-01-30T10:16:28.560Z,78.34
2018-01-30T10:17:28.560Z,78.24
2018-01-30T10:18:28.561Z,77.37
2018-01-30T10:19:28.560Z,74.75
2018-01-30T10:20:28.618Z,73.61
2018-01-30T10:21:28.562Z,73.02
2018-01-30T10:22:28.563Z,70.39
2018-01-30T10:23:28.566Z,69.98
2018-01-30T10:24:28.566Z,70.07
2018-01-30T10:25:28.613Z,68.87
2018-01-30T10:26:28.572Z,68.55
2018-01-30T10:27:28.575Z,69.02
2018-01-30T10:28:28.578Z,68.65
2018-01-30T10:29:28.582Z,66.97
2018-01-30T10:30:28.708Z,67.25
2018-01-30T10:31:28.650Z,66.05
2018-01-30T10:32:28.717Z,64.75
2018-01-30T10:33:28.689Z,63.42
2018-01-30T10:34:28.733Z,62.85
2018-01-30T10:35:28.645Z,63.64
2018-01-30T10:36:28.614Z,61.07
2018-01-30T10:37:28.620Z,61.54
2018-01-30T10:38:28.632Z,60.59
2018-01-30T10:39:28.635Z,59.06
2018-01-30T10:40:28.692Z,60.82
2018-01-30T10:41:28.650Z,62.97
2018-01-30T10:42:29.568Z,64.27
2018-01-30T10:43:28.685Z,66.14
2018-01-30T10:44:28.674Z,68.48
2018-01-30T10:45:28.714Z,69.53
2018-01-30T10:46:28.685Z,70.73
2018-01-30T10:47:28.692Z,71.04
2018-01-30T10:48:28.695Z,70.13
2018-01-30T10:49:28.701Z,67.50
2018-01-30T10:50:28.750Z,65.45
2018-01-30T10:51:28.710Z,65.06
2018-01-30T10:52:28.714Z,64.05
2018-01-30T10:53:28.720Z,63.35
2018-01-30T10:54:28.724Z,64.11
2018-01-30T10:55:28.756Z,63.76
2018-01-30T10:56:28.833Z,62.05
2018-01-30T10:57:28.806Z,63.60
2018-01-30T10:58:28.750Z,63.83
2018-01-30T10:59:28.755Z,62.56
2018-01-30T11:00:28.844Z,60.56
2018-01-30T11:01:28.820Z,59.13
2018-01-30T11:02:28.827Z,59.45
2018-01-30T11:03:28.782Z,58.72
2018-01-30T11:04:28.789Z,57.76
2018-01-30T11:05:28.841Z,57.86
2018-01-30T11:06:28.851Z,56.97
2018-01-30T11:07:28.819Z,58.28
2018-01-30T11:08:28.823Z,59.42
2018-01-30T11:09:28.830Z,60.85
2018-01-30T11:10:28.879Z,59.80
2018-01-30T11:11:28.851Z,59.51
2018-01-30T11:12:28.901Z,59.70
2018-01-30T11:13:28.869Z,59.23
2018-01-30T11:14:28.882Z,59.67
2018-01-30T11:15:28.887Z,59.96
2018-01-30T11:16:28.896Z,59.39
2018-01-30T11:17:28.956Z,60.63
2018-01-30T11:18:28.916Z,60.53
2018-01-30T11:19:28.929Z,60.53
2018-01-30T11:20:28.976Z,60.53
2018-01-30T11:21:28.945Z,60.56
2018-01-30T11:22:28.958Z,58.28
2018-01-30T11:23:29.011Z,57.92
2018-01-30T11:24:28.975Z,57.80
2018-01-30T11:25:28.991Z,57.80
2018-01-30T11:26:28.997Z,58.18
2018-01-30T11:27:29.493Z,58.65
2018-01-30T11:28:29.063Z,57.99
2018-01-30T11:29:29.025Z,56.02
2018-01-30T11:30:29.070Z,55.28
2018-01-30T11:31:29.054Z,53.88
2018-01-30T11:32:29.059Z,53.88
2018-01-30T11:33:29.064Z,52.64
2018-01-30T11:34:29.119Z,51.97
2018-01-30T11:35:29.085Z,51.97
2018-01-30T11:36:29.098Z,52.28
2018-01-30T11:37:29.106Z,50.95
2018-01-30T11:38:29.115Z,51.23
2018-01-30T11:39:29.172Z,50.12
2018-01-30T11:40:29.228Z,50.49
2018-01-30T11:41:29.152Z,50.85
2018-01-30T11:42:29.163Z,51.50
2018-01-30T11:43:29.176Z,52.26
2018-01-30T11:44:29.227Z,51.88
2018-01-30T11:45:29.199Z,52.80
2018-01-30T11:46:29.213Z,53.44
2018-01-30T11:47:29.224Z,54.04
2018-01-30T11:48:29.240Z,54.24
2018-01-30T11:49:29.299Z,53.66
2018-01-30T11:50:29.260Z,53.83
2018-01-30T11:51:29.272Z,55.44
2018-01-30T11:52:29.286Z,54.52
2018-01-30T11:53:29.294Z,54.61
2018-01-30T11:54:29.452Z,53.95
2018-01-30T11:55:29.359Z,53.47
2018-01-30T11:56:29.325Z,53.38
2018-01-30T11:57:29.337Z,52.64
2018-01-30T11:58:29.348Z,52.26
2018-01-30T11:59:29.361Z,52.80
2018-01-30T12:00:30.026Z,54.71
2018-01-30T12:01:29.384Z,53.09
2018-01-30T12:02:29.396Z,52.83
2018-01-30T12:03:29.404Z,52.26
2018-01-30T12:04:29.415Z,52.26
2018-01-30T12:05:29.474Z,51.88
2018-01-30T12:06:29.436Z,51.97
2018-01-30T12:07:29.449Z,53.00
2018-01-30T12:08:29.463Z,52.33
2018-01-30T12:09:29.474Z,52.64
2018-01-30T12:10:29.533Z,52.67
2018-01-30T12:11:29.493Z,51.23
2018-01-30T12:12:29.502Z,50.95
2018-01-30T12:13:29.514Z,50.45
2018-01-30T12:14:29.526Z,51.78
2018-01-30T12:15:29.576Z,51.88
2018-01-30T12:16:29.593Z,51.97
2018-01-30T12:17:29.559Z,50.92
2018-01-30T12:18:29.569Z,51.40
2018-01-30T12:19:29.581Z,51.59
2018-01-30T12:20:29.630Z,51.97
2018-01-30T12:21:29.612Z,50.85
2018-01-30T12:22:29.616Z,50.47
2018-01-30T12:23:29.626Z,50.95
2018-01-30T12:24:29.637Z,51.71
2018-01-30T12:25:29.708Z,51.23
2018-01-30T12:26:29.659Z,50.85
2018-01-30T12:27:29.670Z,50.07
2018-01-30T12:28:29.679Z,50.54
2018-01-30T12:29:29.693Z,51.33
2018-01-30T12:30:29.742Z,50.73
2018-01-30T12:31:29.752Z,50.76
2018-01-30T12:32:29.742Z,51.81
2018-01-30T12:33:29.736Z,51.33
2018-01-30T12:34:29.747Z,50.57
2018-01-30T12:35:30.008Z,50.47
2018-01-30T12:36:29.809Z,49.97
2018-01-30T12:37:29.786Z,50.90
2018-01-30T12:38:30.511Z,51.97
2018-01-30T12:39:29.804Z,51.88
2018-01-30T12:40:29.933Z,51.04
2018-01-30T12:41:29.829Z,49.90
2018-01-30T12:42:29.835Z,49.62
2018-01-30T12:43:29.848Z,50.28
2018-01-30T12:44:29.856Z,50.09
2018-01-30T12:45:29.915Z,49.80
2018-01-30T12:46:29.880Z,48.85
2018-01-30T12:47:30.047Z,50.38
2018-01-30T12:48:29.905Z,50.73
2018-01-30T12:49:29.912Z,51.21
2018-01-30T12:50:29.959Z,50.92
2018-01-30T12:51:29.946Z,51.12
2018-01-30T12:52:29.940Z,51.12